Seacod — DDPW — position and weather

sailwx.info

Track history (hours):
 
Tides and Currents Weather Stations Pressure Air Temp Water Temp Dewpoint Dewpoint Depression Visibility Wind Speed Wind Dir Waves Ship Positions

Seacod

Last reported at 2014-Aug-01 04:30 UTC. Time now 2014-Aug-01 05:49 UTC.
Position N 59°60' E 026°19'.

Length 188 m; draft 9.6 m.

Type: Ship. MMSI: 218019000.

Date/timePositionNaut miles runAvg speedWind from/ knotsBaromVisibWave heightAir tempDewpointWater temp
2014-Aug-01 04:30N 59°60' E 026°19'1213.0
2014-Aug-01 03:33N 60°01' E 026°43'16 0.4
2014-Jul-30 07:22N 60°02' E 027°16'1113.3
2014-Jul-30 06:33N 59°58' E 026°55'1413.8
2014-Jul-30 05:33N 59°58' E 026°28'5813.9
2014-Jul-30 01:23N 59°45' E 024°35'1113.9
2014-Jul-30 00:33N 59°42' E 024°13'1413.5
2014-Jul-29 23:33N 59°38' E 023°48'1513.5
2014-Jul-29 22:26N 59°33' E 023°20'1213.5
2014-Jul-29 21:33N 59°29' E 022°58'1413.5
2014-Jul-29 20:33N 59°24' E 022°33'1713.5
2014-Jul-29 19:17N 59°13' E 022°06'1013.4
2014-Jul-29 18:33N 59°07' E 021°51'14213.6
2014-Jul-29 08:07N 57°15' E 019°09'914.1
2014-Jul-29 07:30N 57°08' E 018°59'1314.0
2014-Jul-29 06:33N 56°57' E 018°44'1413.7
2014-Jul-29 05:33N 56°47' E 018°28'1313.5
2014-Jul-29 04:33N 56°39' E 018°09'1413.7
2014-Jul-29 03:33N 56°30' E 017°49'1413.5
2014-Jul-29 02:33N 56°22' E 017°30'1313.5
2014-Jul-29 01:33N 56°14' E 017°10'1413.4
2014-Jul-29 00:33N 56°05' E 016°51'1313.5
2014-Jul-28 23:33N 55°58' E 016°31'1413.5
2014-Jul-28 22:30N 55°51' E 016°09'1313.5
2014-Jul-28 21:32N 55°45' E 015°49'1413.9
2014-Jul-28 20:33N 55°38' E 015°28'1414.0
2014-Jul-28 19:33N 55°32' E 015°06'1413.9
2014-Jul-28 18:33N 55°25' E 014°44'1413.8
2014-Jul-28 17:33N 55°16' E 014°27'1212.5
2014-Jul-28 16:33N 55°09' E 014°08'1413.7
2014-Jul-28 15:33N 55°11' E 013°45'1414.0
2014-Jul-28 14:34N 55°12' E 013°20'1413.6
2014-Jul-28 13:34N 55°15' E 012°57'1211.8
2014-Jul-28 12:33N 55°21' E 012°39'1212.4
2014-Jul-28 11:33N 55°33' E 012°42'1212.4
2014-Jul-28 10:34N 55°45' E 012°41'1313.0
2014-Jul-28 09:34N 55°58' E 012°38'1111.1
2014-Jul-28 08:34N 56°08' E 012°28'1413.6
2014-Jul-28 07:34N 56°16' E 012°08'1312.7
2014-Jul-28 06:32N 56°28' E 011°59'1313.4
2014-Jul-28 05:33N 56°41' E 011°54'1313.5
2014-Jul-28 04:33N 56°53' E 011°47'1413.7
2014-Jul-28 03:33N 57°06' E 011°38'1413.6
2014-Jul-28 02:33N 57°19' E 011°29'1313.2
2014-Jul-28 01:34N 57°31' E 011°18'1313.5
2014-Jul-28 00:34N 57°40' E 010°59'1312.9
2014-Jul-27 23:34N 57°48' E 010°41'1413.8
2014-Jul-27 22:33N 57°46' E 010°15'26713.3
2014-Jul-27 02:28N 54°21' E 005°09'1313.1
2014-Jul-27 01:28N 54°09' E 005°01'1312.8
2014-Jul-27 00:28N 53°56' E 004°55'1413.3
2014-Jul-26 23:25N 53°42' E 004°52'1112.9
2014-Jul-26 22:33N 53°32' E 004°47'1313.0
2014-Jul-26 21:33N 53°20' E 004°38'1312.9
2014-Jul-26 20:32N 53°08' E 004°28'1313.2
2014-Jul-26 19:32N 52°56' E 004°18'1413.5
2014-Jul-26 18:31N 52°45' E 004°06'1413.9
2014-Jul-26 17:31N 52°35' E 003°50'1314.0
2014-Jul-26 16:34N 52°23' E 003°38'1414.4
2014-Jul-26 15:34N 52°11' E 003°27'1614.5
2014-Jul-26 14:29N 51°55' E 003°23'1313.7
2014-Jul-26 13:33N 51°43' E 003°15'1414.0
2014-Jul-26 12:33N 51°31' E 003°26'10 9.7
2014-Jul-26 11:33N 51°26' E 003°39'1010.4
2014-Jul-26 10:33N 51°21' E 003°54'7 7.0
2014-Jul-26 09:33N 51°22' E 004°05'8 7.7
2014-Jul-26 08:33N 51°21' E 004°17'0 0.3
2014-Jul-26 07:34N 51°21' E 004°18'1 0.5
2014-Jul-26 06:30N 51°21' E 004°18'0 0.0
2014-Jul-26 05:27N 51°21' E 004°18'0 0.0
2014-Jul-26 04:33N 51°21' E 004°18'0 0.0
2014-Jul-26 03:21N 51°21' E 004°18'0 0.0
2014-Jul-26 02:27N 51°21' E 004°18'0 0.0
2014-Jul-26 01:33N 51°21' E 004°18'0 0.0
2014-Jul-26 00:33N 51°21' E 004°18'0 0.0
2014-Jul-25 23:33N 51°21' E 004°18'0 0.0
2014-Jul-25 22:33N 51°21' E 004°18'0 0.0
2014-Jul-25 21:15N 51°21' E 004°18'0 0.0
2014-Jul-25 20:06N 51°21' E 004°18'0 0.0
2014-Jul-25 17:33N 51°21' E 004°18'0 0.0
2014-Jul-25 16:26N 51°21' E 004°18'0 0.0
2014-Jul-25 15:20N 51°21' E 004°18'0 0.3
2014-Jul-25 14:32N 51°21' E 004°18'5 5.3
2014-Jul-25 13:33N 51°16' E 004°20'1 1.3
2014-Jul-25 12:31N 51°15' E 004°22'0 0.0
2014-Jul-25 11:31N 51°15' E 004°22'0 0.0
2014-Jul-25 10:31N 51°15' E 004°22'0 0.0
2014-Jul-25 09:31N 51°15' E 004°22'0 0.0
2014-Jul-25 08:31N 51°15' E 004°22'0 0.0
2014-Jul-25 07:31N 51°15' E 004°22'0 0.0
2014-Jul-25 06:31N 51°15' E 004°22'0 0.0
2014-Jul-25 05:31N 51°15' E 004°22'0 0.0
2014-Jul-25 04:31N 51°15' E 004°22'0 0.0
2014-Jul-25 03:31N 51°15' E 004°22'0 0.0
2014-Jul-25 02:31N 51°15' E 004°22'0 0.0
2014-Jul-25 01:31N 51°15' E 004°22'0 0.0
2014-Jul-25 00:31N 51°15' E 004°22'0 0.0
2014-Jul-24 23:31N 51°15' E 004°22'0 0.0
2014-Jul-24 22:31N 51°15' E 004°22'0 0.0
2014-Jul-24 21:31N 51°15' E 004°22'0 0.0
2014-Jul-24 20:25N 51°15' E 004°22'0 0.0
2014-Jul-24 19:31N 51°15' E 004°22'0 0.0
2014-Jul-24 18:31N 51°15' E 004°22'0 0.0
2014-Jul-24 17:31N 51°15' E 004°22'0 0.0
2014-Jul-24 16:31N 51°15' E 004°22'0 0.0
2014-Jul-24 15:31N 51°15' E 004°22'0 0.0
2014-Jul-24 14:31N 51°15' E 004°22'0 0.0
2014-Jul-24 13:31N 51°15' E 004°22'0 0.0
2014-Jul-24 12:33N 51°15' E 004°22'0 0.0
2014-Jul-24 11:33N 51°15' E 004°22'0 0.0
2014-Jul-24 10:33N 51°15' E 004°22'0 0.0
2014-Jul-24 09:33N 51°15' E 004°22'0 0.4
2014-Jul-24 08:33N 51°15' E 004°22'1 1.4
2014-Jul-24 07:31N 51°16' E 004°20'0 0.0
2014-Jul-24 06:22N 51°16' E 004°20'0 0.0
2014-Jul-24 05:31N 51°16' E 004°20'0 0.0
2014-Jul-24 04:31N 51°16' E 004°20'0 0.0
2014-Jul-24 03:22N 51°16' E 004°20'0 0.0
2014-Jul-24 02:25N 51°16' E 004°20'0 0.0
2014-Jul-24 01:25N 51°16' E 004°20'0 0.0
2014-Jul-24 00:22N 51°16' E 004°20'0 0.0
2014-Jul-23 23:31N 51°16' E 004°20'0 0.0
2014-Jul-23 22:25N 51°16' E 004°20'0 0.0
2014-Jul-23 21:31N 51°16' E 004°20'0 0.0
2014-Jul-23 20:28N 51°16' E 004°20'0 0.0
2014-Jul-23 19:28N 51°16' E 004°20'0 0.0
2014-Jul-23 18:31N 51°16' E 004°20'0 0.0
2014-Jul-23 17:31N 51°16' E 004°20'0 0.0
2014-Jul-23 16:31N 51°16' E 004°20'0 0.0
2014-Jul-23 15:28N 51°16' E 004°20'0 0.0
2014-Jul-23 14:31N 51°16' E 004°20'0 0.0
2014-Jul-23 13:31N 51°16' E 004°20'0 0.0
2014-Jul-23 12:25N 51°16' E 004°20'0 0.0
2014-Jul-23 11:31N 51°16' E 004°20'0 0.0
2014-Jul-23 10:25N 51°16' E 004°20'0 0.0
2014-Jul-23 09:31N 51°16' E 004°20'0 0.0
2014-Jul-23 08:31N 51°16' E 004°20'0 0.0
2014-Jul-23 07:31N 51°16' E 004°20'0 0.0
2014-Jul-23 06:31N 51°16' E 004°20'0 0.0
2014-Jul-23 05:25N 51°16' E 004°20'0 0.0
2014-Jul-23 04:22N 51°16' E 004°20'0 0.0
2014-Jul-23 03:19N 51°16' E 004°20'0 0.0
2014-Jul-23 02:31N 51°16' E 004°20'1 0.8
2014-Jul-23 01:33N 51°17' E 004°21'4 4.3
2014-Jul-23 00:34N 51°21' E 004°17'0 0.0
2014-Jul-22 23:33N 51°21' E 004°17'3 2.9
2014-Jul-22 22:33N 51°22' E 004°13'10 9.7
2014-Jul-22 21:33N 51°26' E 003°59'1010.4
2014-Jul-22 20:33N 51°25' E 003°42'1211.5
2014-Jul-22 19:34N 51°24' E 003°24'1413.6
2014-Jul-22 18:33N 51°25' E 003°02'1313.0
2014-Jul-22 17:32N 51°37' E 003°10'1010.3
2014-Jul-22 16:31N 51°46' E 003°17'0 0.0
2014-Jul-22 15:14N 51°46' E 003°17'0 0.0
2014-Jul-22 14:14N 51°46' E 003°17'0 0.0
2014-Jul-22 13:32N 51°46' E 003°17'0 0.1
2014-Jul-22 12:23N 51°46' E 003°17'0 0.0
2014-Jul-22 11:32N 51°46' E 003°17'0 0.0
2014-Jul-22 10:23N 51°46' E 003°17'0 0.0
2014-Jul-22 09:32N 51°46' E 003°17'0 0.1
2014-Jul-22 08:14N 51°46' E 003°17'  
Track history (hours):
 
Tides and Currents Weather Stations Pressure Air Temp Water Temp Dewpoint Dewpoint Depression Visibility Wind Speed Wind Dir Waves Ship Positions

Seacod

Last reported at 2014-Aug-01 04:30 UTC. Time now 2014-Aug-01 05:49 UTC.
Position N 59°60' E 026°19'.

Length 188 m; draft 9.6 m.

Type: Ship. MMSI: 218019000.

Date/timePositionNaut miles runAvg speedWind from/ knotsBaromVisibWave heightAir tempDewpointWater temp
2014-Aug-01 04:30N 59°60' E 026°19'1213.0
2014-Aug-01 03:33N 60°01' E 026°43'16 0.4
2014-Jul-30 07:22N 60°02' E 027°16'1113.3
2014-Jul-30 06:33N 59°58' E 026°55'1413.8
2014-Jul-30 05:33N 59°58' E 026°28'5813.9
2014-Jul-30 01:23N 59°45' E 024°35'1113.9
2014-Jul-30 00:33N 59°42' E 024°13'1413.5
2014-Jul-29 23:33N 59°38' E 023°48'1513.5
2014-Jul-29 22:26N 59°33' E 023°20'1213.5
2014-Jul-29 21:33N 59°29' E 022°58'1413.5
2014-Jul-29 20:33N 59°24' E 022°33'1713.5
2014-Jul-29 19:17N 59°13' E 022°06'1013.4
2014-Jul-29 18:33N 59°07' E 021°51'14213.6
2014-Jul-29 08:07N 57°15' E 019°09'914.1
2014-Jul-29 07:30N 57°08' E 018°59'1314.0
2014-Jul-29 06:33N 56°57' E 018°44'1413.7
2014-Jul-29 05:33N 56°47' E 018°28'1313.5
2014-Jul-29 04:33N 56°39' E 018°09'1413.7
2014-Jul-29 03:33N 56°30' E 017°49'1413.5
2014-Jul-29 02:33N 56°22' E 017°30'1313.5
2014-Jul-29 01:33N 56°14' E 017°10'1413.4
2014-Jul-29 00:33N 56°05' E 016°51'1313.5
2014-Jul-28 23:33N 55°58' E 016°31'1413.5
2014-Jul-28 22:30N 55°51' E 016°09'1313.5
2014-Jul-28 21:32N 55°45' E 015°49'1413.9
2014-Jul-28 20:33N 55°38' E 015°28'1414.0
2014-Jul-28 19:33N 55°32' E 015°06'1413.9
2014-Jul-28 18:33N 55°25' E 014°44'1413.8
2014-Jul-28 17:33N 55°16' E 014°27'1212.5
2014-Jul-28 16:33N 55°09' E 014°08'1413.7
2014-Jul-28 15:33N 55°11' E 013°45'1414.0
2014-Jul-28 14:34N 55°12' E 013°20'1413.6
2014-Jul-28 13:34N 55°15' E 012°57'1211.8
2014-Jul-28 12:33N 55°21' E 012°39'1212.4
2014-Jul-28 11:33N 55°33' E 012°42'1212.4
2014-Jul-28 10:34N 55°45' E 012°41'1313.0
2014-Jul-28 09:34N 55°58' E 012°38'1111.1
2014-Jul-28 08:34N 56°08' E 012°28'1413.6
2014-Jul-28 07:34N 56°16' E 012°08'1312.7
2014-Jul-28 06:32N 56°28' E 011°59'1313.4
2014-Jul-28 05:33N 56°41' E 011°54'1313.5
2014-Jul-28 04:33N 56°53' E 011°47'1413.7
2014-Jul-28 03:33N 57°06' E 011°38'1413.6
2014-Jul-28 02:33N 57°19' E 011°29'1313.2
2014-Jul-28 01:34N 57°31' E 011°18'1313.5
2014-Jul-28 00:34N 57°40' E 010°59'1312.9
2014-Jul-27 23:34N 57°48' E 010°41'1413.8
2014-Jul-27 22:33N 57°46' E 010°15'26713.3
2014-Jul-27 02:28N 54°21' E 005°09'1313.1
2014-Jul-27 01:28N 54°09' E 005°01'1312.8
2014-Jul-27 00:28N 53°56' E 004°55'1413.3
2014-Jul-26 23:25N 53°42' E 004°52'1112.9
2014-Jul-26 22:33N 53°32' E 004°47'1313.0
2014-Jul-26 21:33N 53°20' E 004°38'1312.9
2014-Jul-26 20:32N 53°08' E 004°28'1313.2
2014-Jul-26 19:32N 52°56' E 004°18'1413.5
2014-Jul-26 18:31N 52°45' E 004°06'1413.9
2014-Jul-26 17:31N 52°35' E 003°50'1314.0
2014-Jul-26 16:34N 52°23' E 003°38'1414.4
2014-Jul-26 15:34N 52°11' E 003°27'1614.5
2014-Jul-26 14:29N 51°55' E 003°23'1313.7
2014-Jul-26 13:33N 51°43' E 003°15'1414.0
2014-Jul-26 12:33N 51°31' E 003°26'10 9.7
2014-Jul-26 11:33N 51°26' E 003°39'1010.4
2014-Jul-26 10:33N 51°21' E 003°54'7 7.0
2014-Jul-26 09:33N 51°22' E 004°05'8 7.7
2014-Jul-26 08:33N 51°21' E 004°17'0 0.3
2014-Jul-26 07:34N 51°21' E 004°18'1 0.5
2014-Jul-26 06:30N 51°21' E 004°18'0 0.0
2014-Jul-26 05:27N 51°21' E 004°18'0 0.0
2014-Jul-26 04:33N 51°21' E 004°18'0 0.0
2014-Jul-26 03:21N 51°21' E 004°18'0 0.0
2014-Jul-26 02:27N 51°21' E 004°18'0 0.0
2014-Jul-26 01:33N 51°21' E 004°18'0 0.0
2014-Jul-26 00:33N 51°21' E 004°18'0 0.0
2014-Jul-25 23:33N 51°21' E 004°18'0 0.0
2014-Jul-25 22:33N 51°21' E 004°18'0 0.0
2014-Jul-25 21:15N 51°21' E 004°18'0 0.0
2014-Jul-25 20:06N 51°21' E 004°18'0 0.0
2014-Jul-25 17:33N 51°21' E 004°18'0 0.0
2014-Jul-25 16:26N 51°21' E 004°18'0 0.0
2014-Jul-25 15:20N 51°21' E 004°18'0 0.3
2014-Jul-25 14:32N 51°21' E 004°18'5 5.3
2014-Jul-25 13:33N 51°16' E 004°20'1 1.3
2014-Jul-25 12:31N 51°15' E 004°22'0 0.0
2014-Jul-25 11:31N 51°15' E 004°22'0 0.0
2014-Jul-25 10:31N 51°15' E 004°22'0 0.0
2014-Jul-25 09:31N 51°15' E 004°22'0 0.0
2014-Jul-25 08:31N 51°15' E 004°22'0 0.0
2014-Jul-25 07:31N 51°15' E 004°22'0 0.0
2014-Jul-25 06:31N 51°15' E 004°22'0 0.0
2014-Jul-25 05:31N 51°15' E 004°22'0 0.0
2014-Jul-25 04:31N 51°15' E 004°22'0 0.0
2014-Jul-25 03:31N 51°15' E 004°22'0 0.0
2014-Jul-25 02:31N 51°15' E 004°22'0 0.0
2014-Jul-25 01:31N 51°15' E 004°22'0 0.0
2014-Jul-25 00:31N 51°15' E 004°22'0 0.0
2014-Jul-24 23:31N 51°15' E 004°22'0 0.0
2014-Jul-24 22:31N 51°15' E 004°22'0 0.0
2014-Jul-24 21:31N 51°15' E 004°22'0 0.0
2014-Jul-24 20:25N 51°15' E 004°22'0 0.0
2014-Jul-24 19:31N 51°15' E 004°22'0 0.0
2014-Jul-24 18:31N 51°15' E 004°22'0 0.0
2014-Jul-24 17:31N 51°15' E 004°22'0 0.0
2014-Jul-24 16:31N 51°15' E 004°22'0 0.0
2014-Jul-24 15:31N 51°15' E 004°22'0 0.0
2014-Jul-24 14:31N 51°15' E 004°22'0 0.0
2014-Jul-24 13:31N 51°15' E 004°22'0 0.0
2014-Jul-24 12:33N 51°15' E 004°22'0 0.0
2014-Jul-24 11:33N 51°15' E 004°22'0 0.0
2014-Jul-24 10:33N 51°15' E 004°22'0 0.0
2014-Jul-24 09:33N 51°15' E 004°22'0 0.4
2014-Jul-24 08:33N 51°15' E 004°22'1 1.4
2014-Jul-24 07:31N 51°16' E 004°20'0 0.0
2014-Jul-24 06:22N 51°16' E 004°20'0 0.0
2014-Jul-24 05:31N 51°16' E 004°20'0 0.0
2014-Jul-24 04:31N 51°16' E 004°20'0 0.0
2014-Jul-24 03:22N 51°16' E 004°20'0 0.0
2014-Jul-24 02:25N 51°16' E 004°20'0 0.0
2014-Jul-24 01:25N 51°16' E 004°20'0 0.0
2014-Jul-24 00:22N 51°16' E 004°20'0 0.0
2014-Jul-23 23:31N 51°16' E 004°20'0 0.0
2014-Jul-23 22:25N 51°16' E 004°20'0 0.0
2014-Jul-23 21:31N 51°16' E 004°20'0 0.0
2014-Jul-23 20:28N 51°16' E 004°20'0 0.0
2014-Jul-23 19:28N 51°16' E 004°20'0 0.0
2014-Jul-23 18:31N 51°16' E 004°20'0 0.0
2014-Jul-23 17:31N 51°16' E 004°20'0 0.0
2014-Jul-23 16:31N 51°16' E 004°20'0 0.0
2014-Jul-23 15:28N 51°16' E 004°20'0 0.0
2014-Jul-23 14:31N 51°16' E 004°20'0 0.0
2014-Jul-23 13:31N 51°16' E 004°20'0 0.0
2014-Jul-23 12:25N 51°16' E 004°20'0 0.0
2014-Jul-23 11:31N 51°16' E 004°20'0 0.0
2014-Jul-23 10:25N 51°16' E 004°20'0 0.0
2014-Jul-23 09:31N 51°16' E 004°20'0 0.0
2014-Jul-23 08:31N 51°16' E 004°20'0 0.0
2014-Jul-23 07:31N 51°16' E 004°20'0 0.0
2014-Jul-23 06:31N 51°16' E 004°20'0 0.0
2014-Jul-23 05:25N 51°16' E 004°20'0 0.0
2014-Jul-23 04:22N 51°16' E 004°20'0 0.0
2014-Jul-23 03:19N 51°16' E 004°20'0 0.0
2014-Jul-23 02:31N 51°16' E 004°20'1 0.8
2014-Jul-23 01:33N 51°17' E 004°21'4 4.3
2014-Jul-23 00:34N 51°21' E 004°17'0 0.0
2014-Jul-22 23:33N 51°21' E 004°17'3 2.9
2014-Jul-22 22:33N 51°22' E 004°13'10 9.7
2014-Jul-22 21:33N 51°26' E 003°59'1010.4
2014-Jul-22 20:33N 51°25' E 003°42'1211.5
2014-Jul-22 19:34N 51°24' E 003°24'1413.6
2014-Jul-22 18:33N 51°25' E 003°02'1313.0
2014-Jul-22 17:32N 51°37' E 003°10'1010.3
2014-Jul-22 16:31N 51°46' E 003°17'0 0.0
2014-Jul-22 15:14N 51°46' E 003°17'0 0.0
2014-Jul-22 14:14N 51°46' E 003°17'0 0.0
2014-Jul-22 13:32N 51°46' E 003°17'0 0.1
2014-Jul-22 12:23N 51°46' E 003°17'0 0.0
2014-Jul-22 11:32N 51°46' E 003°17'0 0.0
2014-Jul-22 10:23N 51°46' E 003°17'0 0.0
2014-Jul-22 09:32N 51°46' E 003°17'0 0.1
2014-Jul-22 08:14N 51°46' E 003°17'  

Dump ship's entire track history